< < Back
Terminal Aerodrome Forecast


Current Version              Previous Versions:   1  2  3  4  5  6  7  8  9  

Terminal Aerodrome Forecast

789
FTUS42 KCAE 230700 AAA
TAFCAE
TAF AMD
KCAE 230732Z 2308/2406 26005KT 3SM BR SKC
      TEMPO 2308/2312 VRB03KT 1SM BR
     FM231300 36010KT P6SM SKC=

Latest METAR

632
SAUS80 KWBC 231000 RRA
MTRCAE
METAR KCAE 230956Z 00000KT 3SM BR CLR 13/13 A2978 RMK AO2 TWR VIS 4
SLP084 T01330128


USA.gov is the U.S. government's official web portal to all federal, state and local government web resources and services.